createdAt,value
2022-08-17T00:01:27.550Z,21.43
2022-08-17T00:03:58.042Z,21.40
2022-08-17T00:06:30.768Z,21.47
2022-08-17T00:09:03.857Z,21.45
2022-08-17T00:11:37.994Z,21.38
2022-08-17T00:14:14.231Z,21.38
2022-08-17T00:16:50.518Z,21.38
2022-08-17T00:19:23.805Z,21.34
2022-08-17T00:22:34.430Z,21.33
2022-08-17T00:24:28.985Z,21.34
2022-08-17T00:26:59.467Z,21.25
2022-08-17T00:29:30.072Z,21.25
2022-08-17T00:33:13.838Z,21.27
2022-08-17T00:34:34.997Z,21.25
2022-08-17T00:37:05.452Z,21.25
2022-08-17T00:39:36.210Z,21.21
2022-08-17T00:42:18.598Z,21.12
2022-08-17T00:44:48.918Z,21.12
2022-08-17T00:47:19.397Z,21.12
2022-08-17T00:49:49.902Z,21.26
2022-08-17T00:52:23.188Z,21.18
2022-08-17T00:54:55.487Z,21.18
2022-08-17T00:57:31.732Z,21.11
2022-08-17T01:00:08.117Z,21.05
2022-08-17T01:02:42.823Z,21.05
2022-08-17T01:05:16.319Z,21.14
2022-08-17T01:07:50.567Z,21.19
2022-08-17T01:10:58.729Z,21.18
2022-08-17T01:12:56.233Z,21.18
2022-08-17T01:15:27.010Z,21.05
2022-08-17T01:17:57.556Z,21.05
2022-08-17T01:20:28.131Z,21.09
2022-08-17T01:22:59.046Z,21.09
2022-08-17T01:25:31.017Z,21.11
2022-08-17T01:28:02.178Z,21.14
2022-08-17T01:30:58.377Z,21.11
2022-08-17T01:33:05.237Z,21.11
2022-08-17T01:35:35.718Z,21.08
2022-08-17T01:38:07.454Z,21.07
2022-08-17T01:40:40.502Z,21.05
2022-08-17T01:43:40.386Z,20.97
2022-08-17T01:46:13.636Z,20.97
2022-08-17T01:48:43.935Z,20.98
2022-08-17T01:51:15.731Z,20.98
2022-08-17T01:53:48.940Z,20.89
2022-08-17T01:56:22.330Z,20.89
2022-08-17T01:58:53.889Z,20.91
2022-08-17T02:01:27.173Z,20.90
2022-08-17T02:04:01.438Z,20.80
2022-08-17T02:06:52.568Z,20.80
2022-08-17T02:09:05.820Z,20.74
2022-08-17T02:11:37.489Z,20.72
2022-08-17T02:14:10.530Z,20.72
2022-08-17T02:16:47.433Z,20.73
2022-08-17T02:19:18.749Z,20.73
2022-08-17T02:21:51.347Z,20.73
2022-08-17T02:24:58.446Z,20.75
2022-08-17T02:26:56.584Z,20.70
2022-08-17T02:29:26.929Z,20.66
2022-08-17T02:31:57.369Z,20.62
2022-08-17T02:34:27.984Z,20.80
2022-08-17T02:36:59.418Z,20.92
2022-08-17T02:39:29.916Z,20.77
2022-08-17T02:42:04.112Z,20.77
2022-08-17T02:44:39.870Z,20.76
2022-08-17T02:47:08.983Z,20.99
2022-08-17T02:49:39.658Z,21.06
2022-08-17T02:52:09.990Z,21.06
2022-08-17T02:54:42.512Z,21.10
2022-08-17T02:57:12.890Z,21.06
2022-08-17T02:59:48.761Z,21.04
2022-08-17T03:02:16.136Z,21.04
2022-08-17T03:04:46.471Z,21.00
2022-08-17T03:07:17.303Z,21.02
2022-08-17T03:09:47.652Z,21.02
2022-08-17T03:12:18.116Z,20.81
2022-08-17T03:14:48.491Z,20.69
2022-08-17T03:17:18.891Z,20.59
2022-08-17T03:19:49.561Z,20.59
2022-08-17T03:22:36.641Z,20.64
2022-08-17T03:24:51.943Z,20.47
2022-08-17T03:27:22.320Z,20.48
2022-08-17T03:29:53.289Z,20.52
2022-08-17T03:32:23.771Z,20.52
2022-08-17T03:37:56.948Z,20.45
2022-08-17T03:40:55.354Z,20.51
2022-08-17T03:42:54.035Z,20.61
2022-08-17T03:45:26.027Z,20.65
2022-08-17T03:47:58.102Z,20.73
2022-08-17T03:50:28.413Z,20.73
2022-08-17T03:52:58.885Z,20.75
2022-08-17T03:55:36.199Z,20.75
2022-08-17T03:58:01.460Z,20.71
2022-08-17T04:00:31.929Z,20.75
2022-08-17T04:03:02.377Z,20.94
2022-08-17T04:05:34.516Z,20.90
2022-08-17T04:08:06.274Z,20.90
2022-08-17T04:10:38.462Z,20.91
2022-08-17T04:13:14.612Z,20.92
2022-08-17T04:15:45.084Z,21.01
2022-08-17T04:18:16.549Z,21.01
2022-08-17T04:20:47.206Z,21.19
2022-08-17T04:23:19.294Z,21.48
2022-08-17T04:25:50.929Z,21.48
2022-08-17T04:28:21.320Z,21.45
2022-08-17T04:30:51.697Z,21.45
2022-08-17T04:33:25.217Z,21.72
2022-08-17T04:38:47.404Z,21.89
2022-08-17T04:41:17.750Z,21.85
2022-08-17T04:43:50.103Z,22.14
2022-08-17T04:46:23.412Z,22.09
2022-08-17T04:48:56.767Z,22.13
2022-08-17T04:51:30.073Z,22.11
2022-08-17T04:54:09.737Z,22.11
2022-08-17T04:56:41.050Z,22.32
2022-08-17T04:59:17.563Z,22.41
2022-08-17T05:01:51.118Z,22.56
2022-08-17T05:04:33.464Z,23.14
2022-08-17T05:06:57.924Z,23.24
2022-08-17T05:09:31.357Z,22.96
2022-08-17T05:12:03.768Z,22.96
2022-08-17T05:14:34.591Z,23.01
2022-08-17T05:17:07.198Z,23.32
2022-08-17T05:19:37.477Z,23.32
2022-08-17T05:22:08.967Z,23.62
2022-08-17T05:24:43.462Z,23.70
2022-08-17T05:27:15.073Z,23.62
2022-08-17T05:29:44.128Z,23.94
2022-08-17T05:32:39.406Z,24.03
2022-08-17T05:34:48.913Z,24.03
2022-08-17T05:37:19.502Z,24.36
2022-08-17T05:39:50.228Z,24.59
2022-08-17T05:42:21.249Z,24.59
2022-08-17T05:44:51.990Z,24.83
2022-08-17T05:47:24.246Z,25.00
2022-08-17T05:49:55.185Z,25.34
2022-08-17T05:52:43.595Z,25.34
2022-08-17T05:55:23.155Z,25.49
2022-08-17T05:58:04.526Z,25.44
2022-08-17T06:00:42.086Z,25.95
2022-08-17T06:03:14.711Z,25.95
2022-08-17T06:06:03.761Z,26.23
2022-08-17T06:08:48.626Z,26.42
2022-08-17T06:11:38.923Z,26.52
2022-08-17T06:14:12.203Z,26.52
2022-08-17T06:16:47.429Z,26.58
2022-08-17T06:19:20.975Z,26.59
2022-08-17T06:21:54.199Z,27.24
2022-08-17T06:24:32.725Z,27.64
2022-08-17T06:27:18.267Z,28.27
2022-08-17T06:30:15.247Z,28.27
2022-08-17T06:32:49.690Z,28.01
2022-08-17T06:35:32.083Z,27.51
2022-08-17T06:38:03.628Z,27.51
2022-08-17T06:40:59.439Z,27.79
2022-08-17T06:43:47.946Z,28.19
2022-08-17T06:46:26.044Z,29.44
2022-08-17T06:49:19.024Z,29.51
2022-08-17T06:52:43.432Z,29.60
2022-08-17T06:54:57.152Z,29.52
2022-08-17T06:57:33.955Z,29.91
2022-08-17T07:00:19.033Z,30.85
2022-08-17T07:02:55.001Z,30.50
2022-08-17T07:05:28.599Z,30.30
2022-08-17T07:08:10.589Z,30.30
2022-08-17T07:10:55.460Z,30.89
2022-08-17T07:13:49.304Z,30.73
2022-08-17T07:16:37.305Z,30.71
2022-08-17T07:19:10.944Z,31.33
2022-08-17T07:21:53.683Z,31.33
2022-08-17T07:24:46.584Z,31.77
2022-08-17T07:27:23.156Z,31.84
2022-08-17T07:30:10.973Z,33.03
2022-08-17T07:32:49.637Z,33.03
2022-08-17T07:35:23.419Z,32.06
2022-08-17T07:38:25.107Z,31.77
2022-08-17T07:40:51.233Z,32.84
2022-08-17T07:43:37.023Z,32.20
2022-08-17T07:46:28.212Z,30.62
2022-08-17T07:49:10.618Z,30.92
2022-08-17T07:51:46.791Z,30.92
2022-08-17T07:54:27.965Z,31.17
2022-08-17T07:57:04.195Z,30.38
2022-08-17T07:59:37.344Z,30.51
2022-08-17T08:05:50.243Z,31.98
2022-08-17T08:08:08.698Z,32.58
2022-08-17T08:10:45.622Z,32.58
2022-08-17T08:13:17.302Z,31.44
2022-08-17T08:15:53.618Z,30.73
2022-08-17T08:18:53.455Z,30.92
2022-08-17T08:21:23.471Z,31.68
2022-08-17T08:24:12.390Z,32.42
2022-08-17T08:27:10.282Z,31.81
2022-08-17T08:29:49.738Z,32.05
2022-08-17T08:32:43.522Z,31.93
2022-08-17T08:35:42.380Z,31.94
2022-08-17T08:38:31.296Z,30.59
2022-08-17T08:41:37.816Z,30.59
2022-08-17T08:45:00.759Z,29.95
2022-08-17T08:47:15.876Z,31.10
2022-08-17T08:50:30.169Z,31.62
2022-08-17T08:52:51.983Z,31.62
2022-08-17T08:55:49.458Z,32.47
2022-08-17T08:58:49.667Z,33.27
2022-08-17T09:05:12.858Z,32.64
2022-08-17T09:07:30.063Z,33.18
2022-08-17T09:10:19.004Z,33.19
2022-08-17T09:13:10.226Z,33.07
2022-08-17T09:15:45.084Z,33.94
2022-08-17T09:21:23.659Z,34.65
2022-08-17T09:24:16.050Z,34.65
2022-08-17T09:26:51.563Z,34.25
2022-08-17T09:29:24.061Z,34.25
2022-08-17T09:31:59.830Z,34.81
2022-08-17T09:34:39.187Z,34.81
2022-08-17T09:37:37.071Z,34.07
2022-08-17T09:40:19.425Z,34.53
2022-08-17T09:45:57.719Z,32.52
2022-08-17T09:48:43.568Z,31.98
2022-08-17T09:51:22.907Z,31.53
2022-08-17T09:53:53.901Z,30.87
2022-08-17T09:56:56.555Z,30.96
2022-08-17T09:59:24.739Z,30.29
2022-08-17T10:02:04.100Z,30.13
2022-08-17T10:04:55.754Z,29.87
2022-08-17T10:07:47.118Z,29.70
2022-08-17T10:10:42.982Z,29.69
2022-08-17T10:13:18.399Z,30.18
2022-08-17T10:16:11.510Z,31.52
2022-08-17T10:19:00.156Z,32.51
2022-08-17T10:21:33.402Z,31.58
2022-08-17T10:24:18.684Z,31.27
2022-08-17T10:26:57.224Z,31.27
2022-08-17T10:29:26.438Z,31.83
2022-08-17T10:32:06.368Z,32.89
2022-08-17T10:34:56.262Z,33.60
2022-08-17T10:37:42.739Z,34.24
2022-08-17T10:40:18.854Z,34.24
2022-08-17T10:43:25.064Z,34.83
2022-08-17T10:46:14.535Z,35.12
2022-08-17T10:48:36.737Z,35.12
2022-08-17T10:51:13.033Z,34.11
2022-08-17T10:53:49.524Z,35.05
2022-08-17T10:56:22.758Z,35.05
2022-08-17T10:58:55.535Z,35.47
2022-08-17T11:01:37.576Z,34.45
2022-08-17T11:04:25.075Z,34.03
2022-08-17T11:07:07.566Z,36.22
2022-08-17T11:10:06.495Z,36.22
2022-08-17T11:12:48.413Z,35.74
2022-08-17T11:15:58.753Z,35.82
2022-08-17T11:18:42.130Z,35.46
2022-08-17T11:21:19.023Z,36.57
2022-08-17T11:24:19.694Z,34.81
2022-08-17T11:32:55.706Z,34.52
2022-08-17T11:35:32.753Z,33.78
2022-08-17T11:38:20.973Z,35.53
2022-08-17T11:41:11.876Z,35.53
2022-08-17T11:44:05.745Z,34.86
2022-08-17T11:46:55.271Z,34.94
2022-08-17T11:49:43.878Z,35.58
2022-08-17T11:52:33.667Z,36.43
2022-08-17T11:55:33.514Z,36.01
2022-08-17T11:57:51.803Z,35.83
2022-08-17T12:00:42.421Z,35.83
2022-08-17T12:05:38.465Z,35.90
2022-08-17T12:08:23.186Z,35.90
2022-08-17T12:11:55.338Z,36.35
2022-08-17T12:14:01.632Z,34.53
2022-08-17T12:16:33.239Z,34.53
2022-08-17T12:19:04.757Z,35.67
2022-08-17T12:21:58.566Z,34.62
2022-08-17T12:25:01.682Z,33.59
2022-08-17T12:27:56.662Z,32.23
2022-08-17T12:30:13.119Z,32.23
2022-08-17T12:32:44.812Z,32.26
2022-08-17T12:35:33.313Z,34.55
2022-08-17T12:38:06.159Z,34.55
2022-08-17T12:40:38.788Z,36.02
2022-08-17T12:43:25.001Z,36.02
2022-08-17T12:46:14.766Z,36.77
2022-08-17T12:48:38.203Z,37.19
2022-08-17T12:51:14.164Z,36.65
2022-08-17T12:53:47.989Z,36.24
2022-08-17T12:56:21.910Z,35.91
2022-08-17T12:59:02.328Z,36.70
2022-08-17T13:01:40.967Z,36.70
2022-08-17T13:04:20.944Z,37.35
2022-08-17T13:07:01.672Z,37.03
2022-08-17T13:09:35.627Z,36.80
2022-08-17T13:12:05.371Z,36.80
2022-08-17T13:14:48.473Z,34.09
2022-08-17T13:17:30.801Z,34.09
2022-08-17T13:20:10.425Z,33.00
2022-08-17T13:22:47.563Z,32.49
2022-08-17T13:25:31.296Z,31.88
2022-08-17T13:28:08.166Z,30.98
2022-08-17T13:30:48.962Z,30.98
2022-08-17T13:33:43.337Z,31.21
2022-08-17T13:36:09.365Z,31.12
2022-08-17T13:38:46.425Z,30.90
2022-08-17T13:41:39.372Z,31.23
2022-08-17T13:44:38.191Z,32.48
2022-08-17T13:47:24.901Z,31.27
2022-08-17T13:49:56.513Z,31.27
2022-08-17T13:52:39.258Z,31.05
2022-08-17T13:55:18.624Z,30.75
2022-08-17T13:57:59.592Z,30.24
2022-08-17T14:00:34.215Z,29.75
2022-08-17T14:03:06.660Z,30.19
2022-08-17T14:05:39.790Z,31.15
2022-08-17T14:08:13.167Z,30.92
2022-08-17T14:10:44.422Z,30.00
2022-08-17T14:13:14.831Z,30.00
2022-08-17T14:15:55.428Z,30.87
2022-08-17T14:18:17.730Z,32.02
2022-08-17T14:20:48.859Z,32.22
2022-08-17T14:23:19.459Z,33.08
2022-08-17T14:25:50.114Z,33.04
2022-08-17T14:28:20.463Z,33.04
2022-08-17T14:30:53.042Z,32.67
2022-08-17T14:33:29.667Z,32.08
2022-08-17T14:36:01.915Z,31.47
2022-08-17T14:38:43.472Z,31.40
2022-08-17T14:41:22.179Z,30.89
2022-08-17T14:43:52.314Z,30.73
2022-08-17T14:46:24.120Z,31.05
2022-08-17T14:48:57.339Z,30.68
2022-08-17T14:51:28.866Z,30.21
2022-08-17T14:53:59.304Z,29.73
2022-08-17T14:56:35.332Z,29.73
2022-08-17T14:59:03.329Z,29.79
2022-08-17T15:01:42.419Z,29.47
2022-08-17T15:04:12.884Z,29.26
2022-08-17T15:06:43.804Z,29.25
2022-08-17T15:09:15.003Z,29.25
2022-08-17T15:11:48.299Z,29.02
2022-08-17T15:14:20.932Z,28.95
2022-08-17T15:16:51.713Z,28.92
2022-08-17T15:19:22.288Z,28.83
2022-08-17T15:21:52.995Z,28.83
2022-08-17T15:24:23.735Z,28.32
2022-08-17T15:26:55.436Z,28.32
2022-08-17T15:29:25.822Z,28.70
2022-08-17T15:32:00.604Z,28.68
2022-08-17T15:34:29.113Z,28.68
2022-08-17T15:36:59.562Z,28.46
2022-08-17T15:39:30.026Z,28.46
2022-08-17T15:42:22.372Z,28.27
2022-08-17T15:44:58.664Z,28.35
2022-08-17T15:47:30.664Z,28.35
2022-08-17T15:50:01.305Z,28.13
2022-08-17T15:52:34.533Z,28.13
2022-08-17T15:55:08.097Z,28.00
2022-08-17T15:57:39.529Z,28.00
2022-08-17T16:00:10.833Z,27.98
2022-08-17T16:03:13.894Z,28.00
2022-08-17T16:05:17.572Z,27.73
2022-08-17T16:07:50.958Z,27.70
2022-08-17T16:10:25.159Z,27.70
2022-08-17T16:12:55.414Z,27.46
2022-08-17T16:15:27.149Z,27.27
2022-08-17T16:17:57.656Z,27.27
2022-08-17T16:20:28.588Z,27.20
2022-08-17T16:22:59.423Z,27.06
2022-08-17T16:25:47.171Z,27.06
2022-08-17T16:28:04.795Z,26.85
2022-08-17T16:30:35.823Z,26.85
2022-08-17T16:33:09.818Z,26.81
2022-08-17T16:35:40.476Z,26.77
2022-08-17T16:38:11.189Z,26.77
2022-08-17T16:40:42.019Z,26.48
2022-08-17T16:43:12.445Z,26.48
2022-08-17T16:45:47.474Z,26.37
2022-08-17T16:48:17.295Z,26.19
2022-08-17T16:51:02.054Z,26.19
2022-08-17T16:53:19.820Z,26.16
2022-08-17T16:55:51.011Z,26.00
2022-08-17T16:58:21.508Z,25.90
2022-08-17T17:00:52.142Z,25.82
2022-08-17T17:03:35.813Z,25.82
2022-08-17T17:06:19.714Z,25.77
2022-08-17T17:09:08.006Z,25.62
2022-08-17T17:11:45.920Z,25.62
2022-08-17T17:14:25.097Z,25.57
2022-08-17T17:17:23.177Z,25.51
2022-08-17T17:20:03.343Z,25.40
2022-08-17T17:22:43.558Z,25.33
2022-08-17T17:25:25.841Z,25.25
2022-08-17T17:31:02.167Z,25.10
2022-08-17T17:33:53.340Z,25.10
2022-08-17T17:36:47.241Z,25.14
2022-08-17T17:39:23.762Z,25.01
2022-08-17T17:41:56.983Z,24.93
2022-08-17T17:44:33.326Z,24.84
2022-08-17T17:47:04.698Z,24.84
2022-08-17T17:49:38.656Z,24.79
2022-08-17T17:52:19.129Z,24.71
2022-08-17T17:55:09.361Z,24.71
2022-08-17T17:58:09.072Z,24.66
2022-08-17T18:00:58.466Z,24.57
2022-08-17T18:03:53.964Z,24.61
2022-08-17T18:06:32.948Z,24.54
2022-08-17T18:09:22.841Z,24.54
2022-08-17T18:12:12.938Z,24.54
2022-08-17T18:15:06.078Z,24.47
2022-08-17T18:17:40.806Z,24.39
2022-08-17T18:20:13.230Z,24.38
2022-08-17T18:22:43.428Z,24.34
2022-08-17T18:25:49.295Z,24.33
2022-08-17T18:28:34.971Z,24.33
2022-08-17T18:31:11.083Z,24.32
2022-08-17T18:33:44.505Z,24.34
2022-08-17T18:36:33.182Z,24.34
2022-08-17T18:39:17.976Z,24.35
2022-08-17T18:41:51.920Z,24.35
2022-08-17T18:44:35.601Z,24.38
2022-08-17T18:47:09.136Z,24.38
2022-08-17T18:49:46.948Z,24.34
2022-08-17T18:52:31.452Z,24.23
2022-08-17T18:55:16.047Z,24.19
2022-08-17T18:57:51.952Z,24.19
2022-08-17T19:00:31.872Z,24.19
2022-08-17T19:03:07.458Z,24.20
2022-08-17T19:05:43.531Z,24.14
2022-08-17T19:08:26.541Z,24.13
2022-08-17T19:11:11.954Z,24.13
2022-08-17T19:13:54.043Z,24.09
2022-08-17T19:16:35.816Z,24.09
2022-08-17T19:19:12.129Z,24.09
2022-08-17T19:21:45.493Z,24.04
2022-08-17T19:24:21.452Z,24.05
2022-08-17T19:27:16.449Z,24.05
2022-08-17T19:30:09.869Z,23.95
2022-08-17T19:32:42.731Z,23.95
2022-08-17T19:35:29.151Z,23.85
2022-08-17T19:38:15.204Z,23.85
2022-08-17T19:44:07.400Z,23.70
2022-08-17T19:47:02.216Z,23.70
2022-08-17T19:49:59.178Z,23.63
2022-08-17T19:52:41.609Z,23.63
2022-08-17T19:55:21.375Z,23.55
2022-08-17T19:58:17.914Z,23.57
2022-08-17T20:01:05.544Z,23.57
2022-08-17T20:03:48.760Z,23.55
2022-08-17T20:06:21.577Z,23.54
2022-08-17T20:09:15.260Z,23.53
2022-08-17T20:11:47.803Z,23.45
2022-08-17T20:14:37.910Z,23.44
2022-08-17T20:17:11.343Z,23.44
2022-08-17T20:19:50.025Z,23.45
2022-08-17T20:22:36.780Z,23.42
2022-08-17T20:25:26.050Z,23.38
2022-08-17T20:28:00.664Z,23.37
2022-08-17T20:30:41.996Z,23.37
2022-08-17T20:33:33.574Z,23.33
2022-08-17T20:36:22.010Z,23.33
2022-08-17T20:38:55.315Z,23.29
2022-08-17T20:41:46.714Z,23.28
2022-08-17T20:44:20.005Z,23.28
2022-08-17T20:46:53.417Z,23.12
2022-08-17T20:49:35.880Z,23.41
2022-08-17T20:52:15.907Z,23.29
2022-08-17T20:54:56.343Z,23.29
2022-08-17T20:57:38.400Z,23.22
2022-08-17T21:00:11.210Z,23.22
2022-08-17T21:02:50.954Z,23.16
2022-08-17T21:06:00.230Z,23.14
2022-08-17T21:08:45.949Z,23.13
2022-08-17T21:12:01.494Z,23.13
2022-08-17T21:14:03.035Z,23.06
2022-08-17T21:17:07.224Z,23.06
2022-08-17T21:20:09.865Z,23.02
2022-08-17T21:22:39.058Z,23.02
2022-08-17T21:25:30.795Z,22.94
2022-08-17T21:28:59.823Z,22.79
2022-08-17T21:31:34.149Z,22.79
2022-08-17T21:34:37.013Z,22.76
2022-08-17T21:37:23.423Z,22.72
2022-08-17T21:40:12.214Z,22.70
2022-08-17T21:42:51.521Z,22.70
2022-08-17T21:45:36.231Z,22.69
2022-08-17T21:48:18.587Z,22.69
2022-08-17T21:51:00.389Z,22.63
2022-08-17T21:53:39.732Z,22.64
2022-08-17T21:56:13.142Z,22.62
2022-08-17T21:58:48.545Z,22.62
2022-08-17T22:01:23.193Z,22.59
2022-08-17T22:03:58.877Z,22.55
2022-08-17T22:06:58.321Z,22.55
2022-08-17T22:09:34.671Z,22.44
2022-08-17T22:12:13.867Z,22.44
2022-08-17T22:14:52.730Z,22.44
2022-08-17T22:17:37.019Z,22.44
2022-08-17T22:20:13.417Z,22.42
2022-08-17T22:22:49.568Z,22.42
2022-08-17T22:25:34.678Z,22.42
2022-08-17T22:28:18.827Z,22.40
2022-08-17T22:31:03.912Z,22.40
2022-08-17T22:33:43.386Z,22.36
2022-08-17T22:39:10.182Z,22.41
2022-08-17T22:42:10.047Z,22.42
2022-08-17T22:44:49.296Z,22.38
2022-08-17T22:47:22.646Z,22.51
2022-08-17T22:49:58.819Z,22.39
2022-08-17T22:52:45.555Z,22.48
2022-08-17T22:55:18.467Z,22.48
2022-08-17T22:57:51.775Z,22.53
2022-08-17T23:00:43.127Z,22.53
2022-08-17T23:03:40.127Z,22.63
2022-08-17T23:06:11.885Z,22.63
2022-08-17T23:08:42.902Z,22.64
2022-08-17T23:11:13.808Z,22.58
2022-08-17T23:13:44.403Z,22.64
2022-08-17T23:16:15.307Z,22.64
2022-08-17T23:18:45.939Z,22.80
2022-08-17T23:21:24.133Z,22.83
2022-08-17T23:23:51.115Z,22.83
2022-08-17T23:26:22.515Z,22.88
2022-08-17T23:28:53.725Z,22.68
2022-08-17T23:31:26.177Z,22.68
2022-08-17T23:33:56.654Z,22.59
2022-08-17T23:36:27.347Z,22.66
2022-08-17T23:38:58.403Z,22.61
2022-08-17T23:41:31.751Z,22.61
2022-08-17T23:44:04.668Z,22.68
2022-08-17T23:46:36.337Z,22.54
2022-08-17T23:49:07.865Z,22.44
2022-08-17T23:51:41.291Z,22.43
2022-08-17T23:54:14.711Z,22.56
2022-08-17T23:56:45.548Z,22.63
2022-08-17T23:59:21.456Z,22.33
